createdAt,value
2022-12-31T00:01:59.362Z,1.42
2022-12-31T00:04:29.272Z,1.27
2022-12-31T00:06:58.922Z,1.90
2022-12-31T00:09:29.822Z,1.70
2022-12-31T00:11:58.748Z,0.98
2022-12-31T00:14:27.934Z,1.67
2022-12-31T00:16:57.151Z,2.08
2022-12-31T00:19:26.374Z,2.20
2022-12-31T00:21:55.832Z,1.63
2022-12-31T00:24:31.062Z,1.42
2022-12-31T00:27:01.867Z,1.63
2022-12-31T00:29:31.120Z,1.73
2022-12-31T00:32:02.732Z,1.50
2022-12-31T00:34:31.920Z,1.38
2022-12-31T00:37:01.535Z,1.77
2022-12-31T00:39:30.714Z,1.80
2022-12-31T00:42:01.984Z,1.65
2022-12-31T00:44:32.651Z,1.52
2022-12-31T00:47:01.993Z,1.17
2022-12-31T00:49:31.648Z,2.35
2022-12-31T00:52:00.954Z,1.70
2022-12-31T00:54:29.878Z,1.88
2022-12-31T00:56:59.269Z,1.73
2022-12-31T00:59:29.775Z,2.28
2022-12-31T01:01:58.971Z,2.63
2022-12-31T01:04:28.259Z,1.65
2022-12-31T01:06:57.413Z,3.47
2022-12-31T01:09:27.043Z,2.25
2022-12-31T01:11:56.608Z,2.15
2022-12-31T01:14:25.507Z,2.72
2022-12-31T01:16:56.186Z,2.67
2022-12-31T01:19:27.415Z,2.40
2022-12-31T01:21:57.732Z,2.20
2022-12-31T01:24:26.767Z,2.20
2022-12-31T01:26:57.960Z,2.00
2022-12-31T01:29:28.170Z,1.92
2022-12-31T01:31:58.945Z,2.45
2022-12-31T01:34:28.656Z,1.73
2022-12-31T01:37:00.837Z,2.42
2022-12-31T01:39:30.293Z,1.98
2022-12-31T01:41:59.648Z,3.20
2022-12-31T01:44:52.688Z,2.15
2022-12-31T01:47:34.605Z,1.98
2022-12-31T01:50:09.546Z,3.28
2022-12-31T01:52:42.280Z,2.38
2022-12-31T01:55:20.351Z,2.57
2022-12-31T01:57:54.386Z,1.92
2022-12-31T02:00:24.560Z,2.30
2022-12-31T02:02:57.865Z,1.80
2022-12-31T02:05:33.003Z,2.70
2022-12-31T02:08:02.025Z,2.45
2022-12-31T02:10:30.967Z,3.42
2022-12-31T02:13:00.689Z,2.33
2022-12-31T02:15:40.933Z,2.85
2022-12-31T02:18:21.555Z,2.45
2022-12-31T02:21:15.018Z,1.35
2022-12-31T02:26:48.306Z,1.55
2022-12-31T02:29:59.755Z,1.50
2022-12-31T02:32:43.623Z,2.15
2022-12-31T02:35:17.154Z,1.05
2022-12-31T02:40:21.044Z,1.77
2022-12-31T02:42:55.253Z,1.30
2022-12-31T02:45:33.606Z,1.52
2022-12-31T02:48:35.665Z,1.10
2022-12-31T02:51:19.412Z,1.80
2022-12-31T02:54:19.243Z,1.48
2022-12-31T02:56:59.996Z,1.80
2022-12-31T02:59:52.556Z,2.00
2022-12-31T03:02:25.627Z,2.50
2022-12-31T03:04:58.229Z,3.65
2022-12-31T03:07:31.801Z,2.00
2022-12-31T03:10:02.085Z,2.20
2022-12-31T03:12:48.532Z,2.35
2022-12-31T03:15:21.339Z,2.58
2022-12-31T03:17:52.642Z,2.20
2022-12-31T03:20:43.191Z,2.70
2022-12-31T03:23:19.063Z,2.85
2022-12-31T03:25:48.010Z,2.15
2022-12-31T03:28:18.906Z,1.85
2022-12-31T03:30:50.701Z,2.17
2022-12-31T03:33:21.501Z,2.40
2022-12-31T03:35:53.247Z,2.33
2022-12-31T03:38:23.375Z,1.43
2022-12-31T03:40:54.023Z,1.77
2022-12-31T03:43:23.807Z,1.73
2022-12-31T03:45:54.943Z,1.48
2022-12-31T03:48:25.210Z,1.42
2022-12-31T03:50:57.882Z,2.03
2022-12-31T03:53:27.446Z,1.60
2022-12-31T03:55:57.102Z,1.65
2022-12-31T03:58:26.778Z,1.70
2022-12-31T04:00:56.215Z,1.55
2022-12-31T04:03:25.996Z,1.70
2022-12-31T04:05:57.512Z,1.98
2022-12-31T04:08:26.241Z,1.65
2022-12-31T04:10:57.904Z,1.90
2022-12-31T04:13:27.406Z,3.03
2022-12-31T04:15:56.978Z,2.53
2022-12-31T04:18:26.523Z,1.70
2022-12-31T04:21:02.025Z,1.77
2022-12-31T04:23:32.750Z,3.17
2022-12-31T04:26:02.263Z,2.95
2022-12-31T04:28:32.089Z,3.15
2022-12-31T04:31:01.591Z,2.70
2022-12-31T04:33:31.433Z,4.10
2022-12-31T04:36:05.727Z,3.13
2022-12-31T04:38:35.320Z,4.70
2022-12-31T04:41:21.097Z,4.43
2022-12-31T04:43:52.375Z,2.50
2022-12-31T04:46:24.807Z,3.53
2022-12-31T04:48:54.471Z,2.53
2022-12-31T04:51:26.398Z,2.60
2022-12-31T04:53:56.219Z,3.20
2022-12-31T04:56:25.872Z,2.20
2022-12-31T04:58:56.700Z,2.33
2022-12-31T05:01:26.893Z,3.20
2022-12-31T05:03:56.546Z,2.30
2022-12-31T05:06:27.486Z,2.42
2022-12-31T05:08:56.722Z,2.28
2022-12-31T05:11:26.202Z,3.08
2022-12-31T05:13:55.407Z,2.65
2022-12-31T05:16:24.838Z,2.85
2022-12-31T05:18:53.964Z,2.20
2022-12-31T05:21:23.602Z,2.70
2022-12-31T05:23:54.143Z,3.05
2022-12-31T05:26:23.469Z,2.90
2022-12-31T05:28:53.059Z,3.05
2022-12-31T05:31:23.423Z,3.28
2022-12-31T05:33:52.594Z,3.22
2022-12-31T05:36:24.569Z,4.07
2022-12-31T05:38:54.785Z,3.72
2022-12-31T05:41:26.637Z,3.78
2022-12-31T05:43:55.950Z,3.85
2022-12-31T05:46:24.867Z,3.95
2022-12-31T05:48:53.826Z,3.95
2022-12-31T05:51:23.095Z,4.05
2022-12-31T05:53:52.367Z,3.90
2022-12-31T05:56:22.533Z,5.03
2022-12-31T05:58:51.236Z,4.60
2022-12-31T06:01:20.022Z,4.55
2022-12-31T06:03:49.555Z,5.00
2022-12-31T06:06:18.366Z,3.80
2022-12-31T06:08:50.702Z,5.15
2022-12-31T06:11:23.829Z,4.75
2022-12-31T06:13:52.766Z,4.53
2022-12-31T06:16:21.794Z,3.53
2022-12-31T06:18:51.313Z,3.35
2022-12-31T06:21:21.223Z,2.80
2022-12-31T06:23:52.431Z,2.67
2022-12-31T06:26:24.992Z,2.00
2022-12-31T06:28:56.342Z,1.50
2022-12-31T06:31:25.661Z,1.83
2022-12-31T06:33:54.403Z,2.13
2022-12-31T06:36:23.219Z,1.92
2022-12-31T06:38:52.465Z,2.25
2022-12-31T06:41:26.094Z,2.03
2022-12-31T06:43:57.379Z,2.05
2022-12-31T06:46:27.997Z,2.20
2022-12-31T06:49:00.185Z,2.95
2022-12-31T06:51:29.431Z,2.42
2022-12-31T06:53:58.602Z,2.67
2022-12-31T06:56:34.557Z,2.58
2022-12-31T06:59:05.457Z,2.25
2022-12-31T07:01:51.346Z,2.22
2022-12-31T07:04:48.083Z,2.40
2022-12-31T07:07:22.713Z,1.75
2022-12-31T07:10:01.868Z,1.35
2022-12-31T07:12:48.346Z,2.25
2022-12-31T07:15:26.844Z,0.70
2022-12-31T07:18:04.430Z,0.98
2022-12-31T07:20:34.702Z,1.30
2022-12-31T07:23:17.081Z,1.52
2022-12-31T07:26:01.306Z,0.80
2022-12-31T07:28:45.465Z,1.02
2022-12-31T07:31:21.961Z,0.80
2022-12-31T07:34:01.394Z,0.47
2022-12-31T07:36:50.452Z,1.73
2022-12-31T07:39:29.860Z,0.98
2022-12-31T07:42:06.378Z,1.50
2022-12-31T07:44:46.647Z,0.70
2022-12-31T07:47:22.115Z,0.90
2022-12-31T07:49:52.263Z,1.48
2022-12-31T07:52:22.814Z,0.75
2022-12-31T07:54:54.661Z,0.80
2022-12-31T07:57:31.103Z,0.55
2022-12-31T08:00:08.600Z,0.85
2022-12-31T08:03:02.682Z,0.47
2022-12-31T08:05:34.852Z,23.63
2022-12-31T08:08:17.217Z,3.88
2022-12-31T08:10:59.418Z,0.45
2022-12-31T08:13:30.023Z,2.50
2022-12-31T08:16:01.669Z,0.55
2022-12-31T08:18:31.947Z,0.60
2022-12-31T08:21:15.063Z,0.50
2022-12-31T08:23:52.184Z,0.57
2022-12-31T08:26:30.103Z,0.60
2022-12-31T08:29:08.896Z,0.70
2022-12-31T08:31:47.995Z,1.08
2022-12-31T08:34:25.096Z,0.60
2022-12-31T08:37:49.436Z,0.73
2022-12-31T08:40:25.197Z,1.73
2022-12-31T08:43:16.953Z,0.73
2022-12-31T08:45:49.902Z,1.75
2022-12-31T08:48:31.291Z,0.90
2022-12-31T08:51:00.885Z,0.90
2022-12-31T08:53:30.477Z,2.03
2022-12-31T08:56:06.877Z,1.60
2022-12-31T08:58:48.854Z,1.10
2022-12-31T09:01:24.708Z,1.70
2022-12-31T09:04:09.548Z,1.50
2022-12-31T09:06:43.727Z,1.03
2022-12-31T09:09:23.773Z,2.30
2022-12-31T09:12:04.552Z,1.45
2022-12-31T09:14:47.026Z,2.92
2022-12-31T09:17:44.242Z,1.10
2022-12-31T09:20:24.236Z,1.85
2022-12-31T09:22:55.128Z,1.23
2022-12-31T09:25:26.070Z,1.05
2022-12-31T09:28:15.475Z,1.38
2022-12-31T09:30:54.684Z,1.35
2022-12-31T09:33:37.779Z,1.25
2022-12-31T09:36:12.408Z,1.00
2022-12-31T09:38:52.401Z,1.10
2022-12-31T09:41:44.034Z,2.00
2022-12-31T09:44:59.205Z,3.38
2022-12-31T09:47:50.654Z,41.30
2022-12-31T09:50:42.638Z,2.38
2022-12-31T09:53:37.262Z,1.67
2022-12-31T09:56:14.018Z,1.45
2022-12-31T09:58:49.324Z,1.20
2022-12-31T10:01:29.360Z,1.20
2022-12-31T10:04:31.462Z,1.13
2022-12-31T10:07:17.533Z,1.30
2022-12-31T10:10:14.444Z,1.88
2022-12-31T10:13:16.707Z,3.63
2022-12-31T10:16:18.596Z,1.40
2022-12-31T10:19:23.926Z,1.92
2022-12-31T10:22:06.341Z,1.88
2022-12-31T10:25:00.181Z,2.50
2022-12-31T10:30:13.464Z,1.55
2022-12-31T10:32:45.799Z,1.65
2022-12-31T10:35:25.634Z,1.30
2022-12-31T10:38:05.739Z,1.75
2022-12-31T10:40:56.091Z,1.45
2022-12-31T10:44:05.058Z,1.90
2022-12-31T10:47:08.305Z,1.52
2022-12-31T10:50:05.174Z,1.75
2022-12-31T10:53:09.895Z,1.73
2022-12-31T10:56:29.224Z,2.67
2022-12-31T10:59:48.080Z,1.65
2022-12-31T11:02:52.162Z,1.63
2022-12-31T11:05:54.778Z,3.00
2022-12-31T11:08:46.356Z,2.03
2022-12-31T11:11:30.212Z,1.60
2022-12-31T11:14:28.240Z,2.30
2022-12-31T11:17:16.188Z,1.48
2022-12-31T11:19:59.262Z,1.50
2022-12-31T11:22:55.637Z,1.30
2022-12-31T11:25:35.647Z,1.27
2022-12-31T11:28:24.190Z,1.10
2022-12-31T11:31:10.023Z,1.42
2022-12-31T11:34:00.385Z,1.48
2022-12-31T11:36:40.737Z,1.70
2022-12-31T11:39:46.081Z,1.20
2022-12-31T11:42:22.438Z,1.52
2022-12-31T11:44:56.612Z,1.60
2022-12-31T11:48:28.395Z,2.67
2022-12-31T11:50:51.945Z,2.50
2022-12-31T11:53:35.439Z,2.40
2022-12-31T11:56:17.176Z,2.45
2022-12-31T11:58:50.537Z,2.83
2022-12-31T12:01:23.879Z,2.95
2022-12-31T12:03:53.506Z,7.38
2022-12-31T12:06:28.845Z,4.13
2022-12-31T12:09:03.080Z,2.55
2022-12-31T12:11:39.186Z,2.85
2022-12-31T12:14:20.614Z,1.65
2022-12-31T12:16:59.178Z,2.97
2022-12-31T12:22:13.985Z,2.10
2022-12-31T12:24:54.584Z,2.20
2022-12-31T12:27:26.118Z,2.10
2022-12-31T12:29:55.485Z,2.15
2022-12-31T12:32:27.080Z,2.47
2022-12-31T12:34:58.440Z,2.08
2022-12-31T12:37:33.460Z,1.63
2022-12-31T12:40:05.356Z,1.88
2022-12-31T12:42:37.209Z,2.35
2022-12-31T12:45:12.303Z,2.75
2022-12-31T12:47:43.563Z,2.95
2022-12-31T12:50:16.993Z,1.85
2022-12-31T12:53:17.361Z,1.40
2022-12-31T12:55:58.723Z,2.03
2022-12-31T12:58:42.328Z,1.98
2022-12-31T13:01:24.479Z,1.73
2022-12-31T13:07:17.889Z,1.83
2022-12-31T13:10:07.416Z,2.35
2022-12-31T13:13:22.084Z,2.15
2022-12-31T13:15:40.592Z,2.50
2022-12-31T13:18:19.337Z,2.47
2022-12-31T13:20:57.317Z,2.30
2022-12-31T13:23:39.617Z,2.72
2022-12-31T13:26:16.300Z,2.00
2022-12-31T13:28:51.940Z,1.77
2022-12-31T13:31:27.837Z,2.35
2022-12-31T13:34:05.249Z,2.25
2022-12-31T13:36:40.976Z,1.80
2022-12-31T13:39:16.999Z,6.20
2022-12-31T13:41:54.943Z,2.13
2022-12-31T13:44:30.440Z,2.58
2022-12-31T13:47:07.909Z,2.08
2022-12-31T13:49:45.373Z,1.90
2022-12-31T13:52:26.231Z,1.80
2022-12-31T13:55:01.073Z,2.05
2022-12-31T13:57:41.132Z,2.22
2022-12-31T14:00:21.435Z,1.88
2022-12-31T14:03:02.203Z,1.58
2022-12-31T14:05:36.401Z,2.65
2022-12-31T14:08:09.124Z,3.35
2022-12-31T14:10:47.009Z,2.28
2022-12-31T14:13:36.046Z,1.63
2022-12-31T14:16:16.547Z,2.17
2022-12-31T14:18:57.951Z,2.63
2022-12-31T14:21:34.225Z,2.33
2022-12-31T14:24:11.439Z,2.25
2022-12-31T14:26:44.946Z,2.58
2022-12-31T14:29:29.449Z,3.17
2022-12-31T14:32:26.048Z,3.00
2022-12-31T14:35:07.297Z,2.83
2022-12-31T14:37:47.767Z,2.90
2022-12-31T14:40:26.140Z,2.60
2022-12-31T14:43:12.534Z,2.40
2022-12-31T14:45:57.452Z,2.72
2022-12-31T14:48:37.693Z,2.50
2022-12-31T14:51:07.668Z,2.42
2022-12-31T14:53:36.523Z,2.63
2022-12-31T14:56:28.492Z,2.58
2022-12-31T14:58:59.208Z,4.85
2022-12-31T15:01:30.351Z,3.22
2022-12-31T15:04:01.622Z,5.72
2022-12-31T15:06:51.100Z,2.38
2022-12-31T15:09:36.514Z,2.70
2022-12-31T15:12:19.797Z,2.25
2022-12-31T15:15:10.924Z,3.15
2022-12-31T15:17:54.547Z,3.83
2022-12-31T15:20:44.245Z,3.47
2022-12-31T15:23:16.198Z,4.25
2022-12-31T15:25:50.157Z,4.53
2022-12-31T15:28:33.464Z,4.47
2022-12-31T15:31:14.471Z,4.35
2022-12-31T15:33:58.647Z,3.30
2022-12-31T15:36:29.414Z,4.13
2022-12-31T15:39:26.851Z,3.85
2022-12-31T15:44:51.947Z,3.53
2022-12-31T15:47:31.298Z,3.55
2022-12-31T15:50:06.777Z,3.53
2022-12-31T15:52:42.875Z,4.47
2022-12-31T15:55:24.567Z,5.72
2022-12-31T15:57:57.013Z,3.75
2022-12-31T16:00:26.550Z,4.20
2022-12-31T16:02:56.852Z,3.70
2022-12-31T16:05:29.416Z,3.67
2022-12-31T16:08:00.585Z,4.18
2022-12-31T16:10:33.195Z,3.58
2022-12-31T16:13:02.499Z,3.13
2022-12-31T16:15:34.371Z,5.60
2022-12-31T16:18:07.553Z,4.88
2022-12-31T16:20:45.858Z,3.97
2022-12-31T16:23:22.246Z,5.97
2022-12-31T16:25:52.641Z,5.25
2022-12-31T16:28:29.856Z,4.65
2022-12-31T16:31:03.848Z,3.42
2022-12-31T16:33:35.456Z,5.43
2022-12-31T16:36:21.806Z,4.30
2022-12-31T16:38:51.102Z,5.32
2022-12-31T16:41:24.698Z,3.58
2022-12-31T16:43:53.630Z,5.20
2022-12-31T16:46:27.682Z,5.47
2022-12-31T16:48:59.818Z,4.55
2022-12-31T16:51:35.313Z,11.65
2022-12-31T16:54:04.614Z,5.85
2022-12-31T16:56:36.452Z,5.60
2022-12-31T16:59:08.435Z,3.50
2022-12-31T17:01:39.823Z,11.20
2022-12-31T17:04:12.358Z,10.00
2022-12-31T17:06:44.383Z,4.88
2022-12-31T17:09:15.650Z,4.78
2022-12-31T17:11:50.687Z,5.15
2022-12-31T17:14:23.072Z,4.53
2022-12-31T17:17:02.578Z,5.75
2022-12-31T17:19:39.490Z,3.88
2022-12-31T17:22:17.428Z,3.75
2022-12-31T17:24:50.050Z,3.65
2022-12-31T17:27:19.319Z,4.63
2022-12-31T17:29:48.605Z,3.45
2022-12-31T17:32:32.441Z,3.95
2022-12-31T17:35:01.908Z,4.05
2022-12-31T17:37:32.284Z,3.80
2022-12-31T17:40:40.652Z,4.13
2022-12-31T17:42:51.422Z,5.13
2022-12-31T17:45:23.302Z,3.50
2022-12-31T17:47:55.734Z,4.28
2022-12-31T17:50:26.192Z,6.05
2022-12-31T17:52:58.646Z,4.50
2022-12-31T17:55:30.720Z,5.15
2022-12-31T17:57:59.758Z,3.67
2022-12-31T18:00:28.895Z,4.70
2022-12-31T18:02:57.777Z,3.75
2022-12-31T18:05:27.498Z,5.18
2022-12-31T18:07:57.693Z,9.85
2022-12-31T18:10:28.446Z,6.00
2022-12-31T18:13:01.774Z,4.32
2022-12-31T18:15:30.771Z,3.70
2022-12-31T18:18:00.003Z,5.80
2022-12-31T18:20:29.113Z,4.53
2022-12-31T18:22:59.428Z,4.32
2022-12-31T18:25:30.656Z,5.20
2022-12-31T18:28:00.226Z,4.20
2022-12-31T18:30:31.414Z,4.32
2022-12-31T18:33:00.181Z,5.00
2022-12-31T18:38:21.405Z,3.78
2022-12-31T18:40:55.339Z,4.53
2022-12-31T18:43:24.814Z,3.00
2022-12-31T18:45:54.403Z,4.53
2022-12-31T18:48:23.438Z,3.42
2022-12-31T18:50:54.931Z,4.60
2022-12-31T18:53:25.481Z,4.85
2022-12-31T18:55:56.293Z,5.60
2022-12-31T18:58:25.393Z,5.72
2022-12-31T19:00:54.561Z,5.38
2022-12-31T19:03:28.430Z,5.23
2022-12-31T19:05:58.435Z,4.65
2022-12-31T19:08:28.665Z,4.28
2022-12-31T19:10:58.151Z,4.78
2022-12-31T19:13:27.308Z,4.85
2022-12-31T19:15:59.133Z,10.60
2022-12-31T19:18:28.295Z,4.57
2022-12-31T19:20:57.855Z,4.15
2022-12-31T19:23:29.101Z,4.18
2022-12-31T19:25:58.281Z,4.10
2022-12-31T19:28:29.010Z,4.57
2022-12-31T19:31:00.820Z,4.35
2022-12-31T19:33:30.628Z,3.58
2022-12-31T19:36:00.010Z,4.93
2022-12-31T19:38:32.293Z,5.72
2022-12-31T19:41:02.908Z,3.38
2022-12-31T19:43:34.132Z,5.20
2022-12-31T19:46:13.213Z,3.90
2022-12-31T19:51:13.266Z,4.30
2022-12-31T19:53:44.120Z,4.15
2022-12-31T19:56:14.573Z,4.65
2022-12-31T19:58:44.196Z,4.50
2022-12-31T20:01:20.513Z,4.72
2022-12-31T20:03:49.839Z,4.57
2022-12-31T20:06:20.174Z,4.00
2022-12-31T20:08:50.723Z,5.75
2022-12-31T20:11:22.145Z,6.53
2022-12-31T20:13:53.751Z,6.68
2022-12-31T20:16:26.928Z,6.03
2022-12-31T20:21:27.913Z,5.80
2022-12-31T20:23:58.699Z,6.05
2022-12-31T20:26:27.860Z,4.22
2022-12-31T20:28:57.149Z,5.65
2022-12-31T20:31:27.602Z,6.13
2022-12-31T20:33:56.964Z,5.82
2022-12-31T20:36:26.438Z,5.97
2022-12-31T20:38:55.694Z,4.97
2022-12-31T20:41:27.162Z,5.85
2022-12-31T20:43:56.720Z,4.80
2022-12-31T20:46:28.310Z,7.28
2022-12-31T20:49:00.086Z,5.68
2022-12-31T20:51:33.594Z,6.80
2022-12-31T20:54:10.683Z,6.07
2022-12-31T20:56:42.413Z,5.28
2022-12-31T20:59:12.219Z,6.90
2022-12-31T21:02:19.454Z,5.47
2022-12-31T21:04:30.615Z,11.63
2022-12-31T21:06:59.449Z,6.07
2022-12-31T21:09:29.162Z,6.25
2022-12-31T21:12:17.400Z,6.15
2022-12-31T21:14:46.101Z,7.72
2022-12-31T21:17:15.825Z,7.38
2022-12-31T21:19:45.215Z,5.97
2022-12-31T21:22:14.544Z,7.25
2022-12-31T21:24:44.827Z,5.32
2022-12-31T21:27:16.072Z,5.80
2022-12-31T21:30:16.506Z,6.05
2022-12-31T21:32:34.687Z,5.93
2022-12-31T21:35:41.123Z,5.45
2022-12-31T21:37:58.614Z,5.75
2022-12-31T21:40:30.305Z,5.80
2022-12-31T21:43:01.020Z,6.28
2022-12-31T21:45:30.421Z,5.35
2022-12-31T21:48:17.854Z,4.82
2022-12-31T21:50:48.645Z,5.35
2022-12-31T21:53:24.540Z,6.30
2022-12-31T21:56:11.296Z,6.70
2022-12-31T21:58:44.319Z,5.28
2022-12-31T22:01:35.876Z,7.28
2022-12-31T22:04:07.936Z,6.55
2022-12-31T22:06:42.332Z,5.82
2022-12-31T22:09:11.511Z,6.40
2022-12-31T22:11:40.922Z,5.30
2022-12-31T22:14:16.296Z,6.38
2022-12-31T22:16:45.827Z,6.40
2022-12-31T22:19:15.324Z,5.50
2022-12-31T22:21:44.243Z,5.65
2022-12-31T22:24:13.390Z,5.70
2022-12-31T22:26:46.570Z,6.18
2022-12-31T22:29:17.396Z,4.90
2022-12-31T22:31:46.148Z,7.28
2022-12-31T22:34:15.142Z,7.22
2022-12-31T22:36:44.320Z,5.35
2022-12-31T22:39:44.085Z,6.53
2022-12-31T22:42:08.355Z,5.55
2022-12-31T22:44:38.500Z,6.75
2022-12-31T22:47:08.178Z,5.78
2022-12-31T22:49:37.601Z,4.95
2022-12-31T22:52:08.787Z,4.68
2022-12-31T22:54:38.692Z,6.38
2022-12-31T22:57:07.574Z,5.88
2022-12-31T22:59:40.580Z,5.60
2022-12-31T23:02:09.719Z,5.53
2022-12-31T23:04:38.583Z,5.05
2022-12-31T23:07:08.542Z,5.07
2022-12-31T23:09:54.984Z,5.85
2022-12-31T23:12:24.213Z,6.03
2022-12-31T23:15:12.307Z,6.93
2022-12-31T23:17:59.092Z,9.02
2022-12-31T23:20:45.524Z,22.73
2022-12-31T23:23:17.010Z,23.15
2022-12-31T23:25:50.742Z,23.02
2022-12-31T23:28:22.334Z,28.25
2022-12-31T23:30:53.651Z,32.70
2022-12-31T23:33:25.043Z,30.80
2022-12-31T23:36:04.224Z,31.35
2022-12-31T23:38:34.038Z,29.58
2022-12-31T23:41:13.379Z,32.05
2022-12-31T23:43:43.878Z,25.88
2022-12-31T23:46:15.905Z,28.42
2022-12-31T23:48:45.593Z,29.17
2022-12-31T23:51:15.338Z,29.15
2022-12-31T23:53:45.848Z,26.95
2022-12-31T23:56:23.377Z,25.15
2022-12-31T23:58:56.322Z,26.75
